SBOSBO RHO / LGRP
Speedbird OnlineSpeedbird Online RHO / LGRP

Diagoras Airport
02:49 21°C

Location Rhodos, Greece
Latitude: 36.405399322509766
Longitude: 28.086200714111328
Local Time 02:49 on 26 May 2024
UTC +3 hours (Europe/Athens)
Currency £1 equals EUR 1.17
METAR LGRP 252320Z 23008KT CAVOK 21/18 Q1008 NOSIG
TAF TAF LGRP 252300Z 2600/2624 24015KT 9999 FEW020 SCT050
Weather As Of 26 May 2024 02:49
Description Clear sky
Wind 15 km/h from South-West (230°)
Cloud Cover 0%
Precipitation Rain: none, Snow: none
Sunrise 05:53
Sunset 20:15
NOTAM 10 active NOTAM
Rotations During the last 90 days there were
6 flights from LGW
6 flights to LGW
1 flights to LHR
1 flights to ATH
Lounges Skyserv Lounge (Temporarily Closed), Main Terminal
Web Wikipedia
Codes IATA: RHO
ICAO: LGRP
Altitude 5 Meter / 17 Feet
Distance 2,770 KM / 1,721 Miles
from London.
Runways
RunwayLength (m)Surface
063306Asphalt
243306Asphalt
Radio
TypeDescriptionFrequency
A/GRDO563.7
APPRODOS APP118.25
ATISATIS126.35
GNDGND121.7
TWRTWR118.2
Live ATC



Support Speedbird Online

© 2017-2024 Speedbird Online